Terminal Aerodrome Forecast
Issued by NWS Shreveport, LA

Home | Current Version | Previous Version | Text Only | Print | Product List | Glossary On
Versions: 1 2 3 4 5 6 7 8 9 10 11 12 13 14 15
000
FTUS44 KSHV 021733
TAFELD
TAF
KELD 021733Z 0218/0318 22012G18KT P6SM SCT045 SCT150 BKN250
     FM022300 22005KT P6SM FEW050 SCT180 BKN250
     FM031200 22006KT P6SM VCTS SCT040CB OVC140=

USA.gov is the U.S. government's official web portal to all federal, state and local government web resources and services.